sensor_id;sensor_type;location;lat;lon;timestamp;temperature;humidity
21778;DHT22;11050;52.222;20.916;2023-06-26T00:01:17;15.90;99.90
21778;DHT22;11050;52.222;20.916;2023-06-26T00:03:46;15.90;99.90
21778;DHT22;11050;52.222;20.916;2023-06-26T00:06:12;15.90;99.90
21778;DHT22;11050;52.222;20.916;2023-06-26T00:08:39;15.80;99.90
21778;DHT22;11050;52.222;20.916;2023-06-26T00:11:05;15.80;99.90
21778;DHT22;11050;52.222;20.916;2023-06-26T00:13:31;15.80;99.90
21778;DHT22;11050;52.222;20.916;2023-06-26T00:15:57;15.70;99.90
21778;DHT22;11050;52.222;20.916;2023-06-26T00:18:22;15.70;99.90
21778;DHT22;11050;52.222;20.916;2023-06-26T00:20:49;15.70;99.90
21778;DHT22;11050;52.222;20.916;2023-06-26T00:23:18;15.70;99.90
21778;DHT22;11050;52.222;20.916;2023-06-26T00:25:44;15.70;99.90
21778;DHT22;11050;52.222;20.916;2023-06-26T00:28:10;15.60;99.90
21778;DHT22;11050;52.222;20.916;2023-06-26T00:30:35;15.60;99.90
21778;DHT22;11050;52.222;20.916;2023-06-26T00:33:01;15.60;99.90
21778;DHT22;11050;52.222;20.916;2023-06-26T00:35:27;15.50;99.90
21778;DHT22;11050;52.222;20.916;2023-06-26T00:37:53;15.50;99.90
21778;DHT22;11050;52.222;20.916;2023-06-26T00:40:19;15.50;99.90
21778;DHT22;11050;52.222;20.916;2023-06-26T00:42:45;15.50;99.90
21778;DHT22;11050;52.222;20.916;2023-06-26T00:45:10;15.50;99.90
21778;DHT22;11050;52.222;20.916;2023-06-26T00:47:37;15.40;99.90
21778;DHT22;11050;52.222;20.916;2023-06-26T00:50:04;15.50;99.90
21778;DHT22;11050;52.222;20.916;2023-06-26T00:52:31;15.40;99.90
21778;DHT22;11050;52.222;20.916;2023-06-26T00:54:57;15.40;99.90
21778;DHT22;11050;52.222;20.916;2023-06-26T00:57:23;15.40;99.90
21778;DHT22;11050;52.222;20.916;2023-06-26T00:59:50;15.30;99.90
21778;DHT22;11050;52.222;20.916;2023-06-26T01:02:15;15.30;99.90
21778;DHT22;11050;52.222;20.916;2023-06-26T01:04:47;15.20;99.90
21778;DHT22;11050;52.222;20.916;2023-06-26T01:07:15;15.20;99.90
21778;DHT22;11050;52.222;20.916;2023-06-26T01:09:44;15.20;99.90
21778;DHT22;11050;52.222;20.916;2023-06-26T01:12:12;15.10;99.90
21778;DHT22;11050;52.222;20.916;2023-06-26T01:14:38;15.10;99.90
21778;DHT22;11050;52.222;20.916;2023-06-26T01:17:04;15.10;99.90
21778;DHT22;11050;52.222;20.916;2023-06-26T01:19:32;15.10;99.90
21778;DHT22;11050;52.222;20.916;2023-06-26T01:28:22;15.00;99.90
21778;DHT22;11050;52.222;20.916;2023-06-26T01:30:50;15.00;99.90
21778;DHT22;11050;52.222;20.916;2023-06-26T01:33:17;14.90;99.90
21778;DHT22;11050;52.222;20.916;2023-06-26T01:35:43;14.90;99.90
21778;DHT22;11050;52.222;20.916;2023-06-26T01:40:45;14.90;99.90
21778;DHT22;11050;52.222;20.916;2023-06-26T01:43:36;14.80;99.90
21778;DHT22;11050;52.222;20.916;2023-06-26T01:46:29;14.80;99.90
21778;DHT22;11050;52.222;20.916;2023-06-26T01:52:20;14.70;99.90
21778;DHT22;11050;52.222;20.916;2023-06-26T01:57:54;14.60;99.90
21778;DHT22;11050;52.222;20.916;2023-06-26T02:00:23;14.60;99.90
21778;DHT22;11050;52.222;20.916;2023-06-26T02:02:50;14.60;99.90
21778;DHT22;11050;52.222;20.916;2023-06-26T02:05:17;14.60;99.90
21778;DHT22;11050;52.222;20.916;2023-06-26T02:07:43;14.50;99.90
21778;DHT22;11050;52.222;20.916;2023-06-26T02:10:09;14.50;99.90
21778;DHT22;11050;52.222;20.916;2023-06-26T02:12:36;14.50;99.90
21778;DHT22;11050;52.222;20.916;2023-06-26T02:15:03;14.40;99.90
21778;DHT22;11050;52.222;20.916;2023-06-26T02:17:30;14.40;99.90
21778;DHT22;11050;52.222;20.916;2023-06-26T02:19:56;14.40;99.90
21778;DHT22;11050;52.222;20.916;2023-06-26T02:22:22;14.40;99.90
21778;DHT22;11050;52.222;20.916;2023-06-26T02:24:47;14.40;99.90
21778;DHT22;11050;52.222;20.916;2023-06-26T02:27:13;14.40;99.90
21778;DHT22;11050;52.222;20.916;2023-06-26T02:29:40;14.40;99.90
21778;DHT22;11050;52.222;20.916;2023-06-26T02:32:07;14.50;99.90
21778;DHT22;11050;52.222;20.916;2023-06-26T02:34:34;14.50;99.90
21778;DHT22;11050;52.222;20.916;2023-06-26T02:37:01;14.50;99.90
21778;DHT22;11050;52.222;20.916;2023-06-26T02:39:27;14.50;99.90
21778;DHT22;11050;52.222;20.916;2023-06-26T02:41:53;14.60;99.90
21778;DHT22;11050;52.222;20.916;2023-06-26T02:44:19;14.60;99.90
21778;DHT22;11050;52.222;20.916;2023-06-26T02:46:45;14.60;99.90
21778;DHT22;11050;52.222;20.916;2023-06-26T02:49:10;14.70;99.90
21778;DHT22;11050;52.222;20.916;2023-06-26T02:51:36;14.70;99.90
21778;DHT22;11050;52.222;20.916;2023-06-26T02:54:02;14.70;99.90
21778;DHT22;11050;52.222;20.916;2023-06-26T02:56:28;14.70;99.90
21778;DHT22;11050;52.222;20.916;2023-06-26T02:58:55;14.70;99.90
21778;DHT22;11050;52.222;20.916;2023-06-26T03:01:21;14.80;99.90
21778;DHT22;11050;52.222;20.916;2023-06-26T03:03:47;14.80;99.90
21778;DHT22;11050;52.222;20.916;2023-06-26T03:06:14;14.80;99.90
21778;DHT22;11050;52.222;20.916;2023-06-26T03:08:40;14.80;99.90
21778;DHT22;11050;52.222;20.916;2023-06-26T03:11:09;14.80;99.90
21778;DHT22;11050;52.222;20.916;2023-06-26T03:13:36;14.80;99.90
21778;DHT22;11050;52.222;20.916;2023-06-26T03:16:03;14.80;99.90
21778;DHT22;11050;52.222;20.916;2023-06-26T03:18:29;14.90;99.90
21778;DHT22;11050;52.222;20.916;2023-06-26T03:20:56;14.90;99.90
21778;DHT22;11050;52.222;20.916;2023-06-26T03:23:23;14.90;99.90
21778;DHT22;11050;52.222;20.916;2023-06-26T03:25:49;14.90;99.90
21778;DHT22;11050;52.222;20.916;2023-06-26T03:28:15;14.90;99.90
21778;DHT22;11050;52.222;20.916;2023-06-26T03:30:41;15.00;99.90
21778;DHT22;11050;52.222;20.916;2023-06-26T03:33:07;15.00;99.90
21778;DHT22;11050;52.222;20.916;2023-06-26T03:35:33;15.10;99.90
21778;DHT22;11050;52.222;20.916;2023-06-26T03:37:59;15.20;99.90
21778;DHT22;11050;52.222;20.916;2023-06-26T03:40:26;15.20;99.90
21778;DHT22;11050;52.222;20.916;2023-06-26T03:42:51;15.30;99.90
21778;DHT22;11050;52.222;20.916;2023-06-26T03:45:17;15.30;99.90
21778;DHT22;11050;52.222;20.916;2023-06-26T03:47:44;15.40;99.90
21778;DHT22;11050;52.222;20.916;2023-06-26T03:50:16;15.50;99.90
21778;DHT22;11050;52.222;20.916;2023-06-26T03:52:42;15.50;99.90
21778;DHT22;11050;52.222;20.916;2023-06-26T03:55:08;15.60;99.90
21778;DHT22;11050;52.222;20.916;2023-06-26T03:57:34;15.60;99.90
21778;DHT22;11050;52.222;20.916;2023-06-26T04:00:00;15.70;99.90
21778;DHT22;11050;52.222;20.916;2023-06-26T04:02:26;15.70;99.90
21778;DHT22;11050;52.222;20.916;2023-06-26T04:04:52;15.80;99.90
21778;DHT22;11050;52.222;20.916;2023-06-26T04:07:18;15.80;99.90
21778;DHT22;11050;52.222;20.916;2023-06-26T04:09:45;15.90;99.90
21778;DHT22;11050;52.222;20.916;2023-06-26T04:12:10;15.90;99.90
21778;DHT22;11050;52.222;20.916;2023-06-26T04:14:36;16.00;99.90
21778;DHT22;11050;52.222;20.916;2023-06-26T04:17:02;16.10;99.90
21778;DHT22;11050;52.222;20.916;2023-06-26T04:19:29;16.10;99.90
21778;DHT22;11050;52.222;20.916;2023-06-26T04:21:56;16.20;99.90
21778;DHT22;11050;52.222;20.916;2023-06-26T04:24:22;16.30;99.90
21778;DHT22;11050;52.222;20.916;2023-06-26T04:26:48;16.30;99.90
21778;DHT22;11050;52.222;20.916;2023-06-26T04:29:13;16.40;99.90
21778;DHT22;11050;52.222;20.916;2023-06-26T04:31:39;16.50;99.90
21778;DHT22;11050;52.222;20.916;2023-06-26T04:34:05;16.50;99.90
21778;DHT22;11050;52.222;20.916;2023-06-26T04:36:31;16.60;99.90
21778;DHT22;11050;52.222;20.916;2023-06-26T04:38:59;16.70;99.90
21778;DHT22;11050;52.222;20.916;2023-06-26T04:41:25;16.80;99.90
21778;DHT22;11050;52.222;20.916;2023-06-26T04:43:51;16.80;99.90
21778;DHT22;11050;52.222;20.916;2023-06-26T04:46:16;16.90;99.90
21778;DHT22;11050;52.222;20.916;2023-06-26T04:48:42;17.00;99.90
21778;DHT22;11050;52.222;20.916;2023-06-26T04:51:10;17.10;99.90
21778;DHT22;11050;52.222;20.916;2023-06-26T04:53:36;17.20;99.90
21778;DHT22;11050;52.222;20.916;2023-06-26T04:56:02;17.30;99.90
21778;DHT22;11050;52.222;20.916;2023-06-26T04:58:28;17.40;99.90
21778;DHT22;11050;52.222;20.916;2023-06-26T05:00:54;17.50;99.90
21778;DHT22;11050;52.222;20.916;2023-06-26T05:03:21;17.60;99.90
21778;DHT22;11050;52.222;20.916;2023-06-26T05:05:47;17.70;99.90
21778;DHT22;11050;52.222;20.916;2023-06-26T05:08:23;17.80;99.90
21778;DHT22;11050;52.222;20.916;2023-06-26T05:10:52;17.80;99.90
21778;DHT22;11050;52.222;20.916;2023-06-26T05:13:19;17.90;99.90
21778;DHT22;11050;52.222;20.916;2023-06-26T05:15:46;18.00;99.90
21778;DHT22;11050;52.222;20.916;2023-06-26T05:18:12;18.10;99.90
21778;DHT22;11050;52.222;20.916;2023-06-26T05:20:38;18.20;99.90
21778;DHT22;11050;52.222;20.916;2023-06-26T05:23:04;18.30;99.90
21778;DHT22;11050;52.222;20.916;2023-06-26T05:25:31;18.40;99.90
21778;DHT22;11050;52.222;20.916;2023-06-26T05:27:59;18.40;99.90
21778;DHT22;11050;52.222;20.916;2023-06-26T05:30:26;18.50;99.90
21778;DHT22;11050;52.222;20.916;2023-06-26T05:32:53;18.60;99.90
21778;DHT22;11050;52.222;20.916;2023-06-26T05:35:23;18.70;99.90
21778;DHT22;11050;52.222;20.916;2023-06-26T05:37:49;18.80;99.90
21778;DHT22;11050;52.222;20.916;2023-06-26T05:40:19;18.90;99.90
21778;DHT22;11050;52.222;20.916;2023-06-26T05:42:46;19.00;99.90
21778;DHT22;11050;52.222;20.916;2023-06-26T05:45:12;19.10;99.90
21778;DHT22;11050;52.222;20.916;2023-06-26T05:47:38;19.20;99.90
21778;DHT22;11050;52.222;20.916;2023-06-26T05:50:04;19.30;99.90
21778;DHT22;11050;52.222;20.916;2023-06-26T05:52:31;19.40;99.90
21778;DHT22;11050;52.222;20.916;2023-06-26T05:54:57;19.50;99.90
21778;DHT22;11050;52.222;20.916;2023-06-26T05:57:27;19.70;99.90
21778;DHT22;11050;52.222;20.916;2023-06-26T05:59:54;19.70;99.90
21778;DHT22;11050;52.222;20.916;2023-06-26T06:02:20;19.90;99.90
21778;DHT22;11050;52.222;20.916;2023-06-26T06:04:46;20.00;99.90
21778;DHT22;11050;52.222;20.916;2023-06-26T06:07:12;20.10;99.90
21778;DHT22;11050;52.222;20.916;2023-06-26T06:09:38;20.20;99.90
21778;DHT22;11050;52.222;20.916;2023-06-26T06:12:05;20.30;99.90
21778;DHT22;11050;52.222;20.916;2023-06-26T06:14:33;20.50;99.90
21778;DHT22;11050;52.222;20.916;2023-06-26T06:16:59;20.60;99.90
21778;DHT22;11050;52.222;20.916;2023-06-26T06:19:26;20.70;99.90
21778;DHT22;11050;52.222;20.916;2023-06-26T06:21:51;20.90;99.90
21778;DHT22;11050;52.222;20.916;2023-06-26T06:24:18;21.00;99.90
21778;DHT22;11050;52.222;20.916;2023-06-26T06:26:43;21.10;99.90
21778;DHT22;11050;52.222;20.916;2023-06-26T06:29:10;21.20;99.90
21778;DHT22;11050;52.222;20.916;2023-06-26T06:31:35;21.30;99.90
21778;DHT22;11050;52.222;20.916;2023-06-26T06:34:01;21.40;99.90
21778;DHT22;11050;52.222;20.916;2023-06-26T06:36:27;21.50;99.90
21778;DHT22;11050;52.222;20.916;2023-06-26T06:38:53;21.70;99.90
21778;DHT22;11050;52.222;20.916;2023-06-26T06:41:20;21.80;99.90
21778;DHT22;11050;52.222;20.916;2023-06-26T06:43:46;21.90;99.90
21778;DHT22;11050;52.222;20.916;2023-06-26T06:46:12;22.00;99.90
21778;DHT22;11050;52.222;20.916;2023-06-26T06:48:37;22.10;99.90
21778;DHT22;11050;52.222;20.916;2023-06-26T06:51:03;22.20;99.90
21778;DHT22;11050;52.222;20.916;2023-06-26T06:53:29;22.40;99.90
21778;DHT22;11050;52.222;20.916;2023-06-26T06:55:56;22.50;99.90
21778;DHT22;11050;52.222;20.916;2023-06-26T06:58:21;22.60;99.30
21778;DHT22;11050;52.222;20.916;2023-06-26T07:00:48;22.70;98.80
21778;DHT22;11050;52.222;20.916;2023-06-26T07:03:14;22.80;97.80
21778;DHT22;11050;52.222;20.916;2023-06-26T07:05:43;22.90;96.00
21778;DHT22;11050;52.222;20.916;2023-06-26T07:08:10;23.00;96.00
21778;DHT22;11050;52.222;20.916;2023-06-26T07:10:35;23.10;94.50
21778;DHT22;11050;52.222;20.916;2023-06-26T07:13:01;23.20;93.10
21778;DHT22;11050;52.222;20.916;2023-06-26T07:15:27;23.30;92.50
21778;DHT22;11050;52.222;20.916;2023-06-26T07:17:53;23.30;91.90
21778;DHT22;11050;52.222;20.916;2023-06-26T07:20:19;23.40;91.00
21778;DHT22;11050;52.222;20.916;2023-06-26T07:22:45;23.50;90.70
21778;DHT22;11050;52.222;20.916;2023-06-26T07:25:11;23.50;90.10
21778;DHT22;11050;52.222;20.916;2023-06-26T07:27:38;23.60;90.20
21778;DHT22;11050;52.222;20.916;2023-06-26T07:30:04;23.70;87.70
21778;DHT22;11050;52.222;20.916;2023-06-26T07:32:31;23.70;85.80
21778;DHT22;11050;52.222;20.916;2023-06-26T07:34:56;23.80;84.00
21778;DHT22;11050;52.222;20.916;2023-06-26T07:37:22;23.90;85.20
21778;DHT22;11050;52.222;20.916;2023-06-26T07:39:49;24.00;85.10
21778;DHT22;11050;52.222;20.916;2023-06-26T07:42:15;24.00;82.90
21778;DHT22;11050;52.222;20.916;2023-06-26T07:44:44;24.10;82.50
21778;DHT22;11050;52.222;20.916;2023-06-26T07:47:10;24.20;82.10
21778;DHT22;11050;52.222;20.916;2023-06-26T07:49:36;24.20;80.20
21778;DHT22;11050;52.222;20.916;2023-06-26T07:52:03;24.30;80.50
21778;DHT22;11050;52.222;20.916;2023-06-26T07:54:29;24.30;79.60
21778;DHT22;11050;52.222;20.916;2023-06-26T07:56:59;24.50;80.90
21778;DHT22;11050;52.222;20.916;2023-06-26T07:59:28;24.50;79.80
21778;DHT22;11050;52.222;20.916;2023-06-26T08:01:56;24.50;79.50
21778;DHT22;11050;52.222;20.916;2023-06-26T08:04:24;24.50;78.40
21778;DHT22;11050;52.222;20.916;2023-06-26T08:06:53;24.50;78.50
21778;DHT22;11050;52.222;20.916;2023-06-26T08:09:26;24.50;78.40
21778;DHT22;11050;52.222;20.916;2023-06-26T08:11:53;24.60;77.20
21778;DHT22;11050;52.222;20.916;2023-06-26T08:14:20;24.70;76.20
21778;DHT22;11050;52.222;20.916;2023-06-26T08:16:46;24.70;77.30
21778;DHT22;11050;52.222;20.916;2023-06-26T08:19:14;24.80;76.00
21778;DHT22;11050;52.222;20.916;2023-06-26T08:21:41;24.90;75.00
21778;DHT22;11050;52.222;20.916;2023-06-26T08:24:08;25.00;76.40
21778;DHT22;11050;52.222;20.916;2023-06-26T08:26:35;25.10;74.90
21778;DHT22;11050;52.222;20.916;2023-06-26T08:29:02;25.20;72.60
21778;DHT22;11050;52.222;20.916;2023-06-26T08:31:37;25.30;69.50
21778;DHT22;11050;52.222;20.916;2023-06-26T08:34:04;25.40;69.40
21778;DHT22;11050;52.222;20.916;2023-06-26T08:36:31;25.50;65.50
21778;DHT22;11050;52.222;20.916;2023-06-26T08:38:57;25.70;65.50
21778;DHT22;11050;52.222;20.916;2023-06-26T08:41:24;25.90;64.40
21778;DHT22;11050;52.222;20.916;2023-06-26T08:43:50;26.00;62.20
21778;DHT22;11050;52.222;20.916;2023-06-26T08:46:18;26.20;58.20
21778;DHT22;11050;52.222;20.916;2023-06-26T08:48:55;26.20;56.40
21778;DHT22;11050;52.222;20.916;2023-06-26T08:51:24;26.10;57.90
21778;DHT22;11050;52.222;20.916;2023-06-26T08:53:58;26.20;58.90
21778;DHT22;11050;52.222;20.916;2023-06-26T08:56:46;26.30;58.20
21778;DHT22;11050;52.222;20.916;2023-06-26T08:59:15;26.50;58.20
21778;DHT22;11050;52.222;20.916;2023-06-26T09:01:42;26.60;57.70
21778;DHT22;11050;52.222;20.916;2023-06-26T09:04:08;26.60;56.00
21778;DHT22;11050;52.222;20.916;2023-06-26T09:06:33;26.60;56.70
21778;DHT22;11050;52.222;20.916;2023-06-26T09:08:59;26.50;57.70
21778;DHT22;11050;52.222;20.916;2023-06-26T09:11:25;26.40;59.00
21778;DHT22;11050;52.222;20.916;2023-06-26T09:13:51;26.40;58.30
21778;DHT22;11050;52.222;20.916;2023-06-26T09:16:17;26.30;58.00
21778;DHT22;11050;52.222;20.916;2023-06-26T09:18:46;26.30;57.90
21778;DHT22;11050;52.222;20.916;2023-06-26T09:21:12;26.40;58.90
21778;DHT22;11050;52.222;20.916;2023-06-26T09:23:40;26.60;58.50
21778;DHT22;11050;52.222;20.916;2023-06-26T09:26:07;26.70;57.40
21778;DHT22;11050;52.222;20.916;2023-06-26T09:28:34;26.80;59.20
21778;DHT22;11050;52.222;20.916;2023-06-26T09:31:05;27.00;58.70
21778;DHT22;11050;52.222;20.916;2023-06-26T09:33:35;27.10;55.90
21778;DHT22;11050;52.222;20.916;2023-06-26T09:36:05;27.30;57.10
21778;DHT22;11050;52.222;20.916;2023-06-26T09:38:37;27.50;55.30
21778;DHT22;11050;52.222;20.916;2023-06-26T09:41:03;27.70;52.30
21778;DHT22;11050;52.222;20.916;2023-06-26T09:43:29;27.80;51.70
21778;DHT22;11050;52.222;20.916;2023-06-26T09:45:56;27.80;52.40
21778;DHT22;11050;52.222;20.916;2023-06-26T09:48:22;27.90;53.00
21778;DHT22;11050;52.222;20.916;2023-06-26T09:50:48;27.90;51.70
21778;DHT22;11050;52.222;20.916;2023-06-26T09:53:15;27.90;51.10
21778;DHT22;11050;52.222;20.916;2023-06-26T09:55:41;27.90;51.40
21778;DHT22;11050;52.222;20.916;2023-06-26T09:58:11;27.80;51.30
21778;DHT22;11050;52.222;20.916;2023-06-26T10:00:41;27.80;52.20
21778;DHT22;11050;52.222;20.916;2023-06-26T10:03:08;27.80;53.10
21778;DHT22;11050;52.222;20.916;2023-06-26T10:05:35;27.80;53.90
21778;DHT22;11050;52.222;20.916;2023-06-26T10:08:01;27.90;51.00
21778;DHT22;11050;52.222;20.916;2023-06-26T10:10:28;27.90;49.20
21778;DHT22;11050;52.222;20.916;2023-06-26T10:12:59;27.90;48.70
21778;DHT22;11050;52.222;20.916;2023-06-26T10:15:30;28.10;48.20
21778;DHT22;11050;52.222;20.916;2023-06-26T10:17:57;28.30;48.00
21778;DHT22;11050;52.222;20.916;2023-06-26T10:20:24;28.30;47.30
21778;DHT22;11050;52.222;20.916;2023-06-26T10:22:51;28.20;47.30
21778;DHT22;11050;52.222;20.916;2023-06-26T10:25:23;28.10;48.90
21778;DHT22;11050;52.222;20.916;2023-06-26T10:27:55;28.10;48.20
21778;DHT22;11050;52.222;20.916;2023-06-26T10:30:27;28.00;48.50
21778;DHT22;11050;52.222;20.916;2023-06-26T10:32:57;28.00;48.50
21778;DHT22;11050;52.222;20.916;2023-06-26T10:35:24;28.00;47.60
21778;DHT22;11050;52.222;20.916;2023-06-26T10:37:50;28.20;47.70
21778;DHT22;11050;52.222;20.916;2023-06-26T10:40:27;28.30;47.80
21778;DHT22;11050;52.222;20.916;2023-06-26T10:43:13;28.50;49.50
21778;DHT22;11050;52.222;20.916;2023-06-26T10:45:48;28.60;47.00
21778;DHT22;11050;52.222;20.916;2023-06-26T10:48:18;28.60;46.20
21778;DHT22;11050;52.222;20.916;2023-06-26T10:50:47;28.60;46.60
21778;DHT22;11050;52.222;20.916;2023-06-26T10:56:00;28.90;45.40
21778;DHT22;11050;52.222;20.916;2023-06-26T10:58:48;29.10;45.40
21778;DHT22;11050;52.222;20.916;2023-06-26T11:01:18;29.30;44.80
21778;DHT22;11050;52.222;20.916;2023-06-26T11:06:26;29.70;44.10
21778;DHT22;11050;52.222;20.916;2023-06-26T11:08:53;29.90;43.60
21778;DHT22;11050;52.222;20.916;2023-06-26T11:14:21;30.30;42.20
21778;DHT22;11050;52.222;20.916;2023-06-26T11:16:48;30.40;42.10
21778;DHT22;11050;52.222;20.916;2023-06-26T11:19:18;30.60;41.20
21778;DHT22;11050;52.222;20.916;2023-06-26T11:21:45;30.70;41.10
21778;DHT22;11050;52.222;20.916;2023-06-26T11:24:12;30.80;42.00
21778;DHT22;11050;52.222;20.916;2023-06-26T11:26:40;31.00;40.20
21778;DHT22;11050;52.222;20.916;2023-06-26T11:29:07;31.20;40.60
21778;DHT22;11050;52.222;20.916;2023-06-26T11:31:36;31.30;40.10
21778;DHT22;11050;52.222;20.916;2023-06-26T11:34:06;31.30;40.20
21778;DHT22;11050;52.222;20.916;2023-06-26T11:36:34;31.30;39.70
21778;DHT22;11050;52.222;20.916;2023-06-26T11:39:06;31.50;38.00
21778;DHT22;11050;52.222;20.916;2023-06-26T11:41:35;31.60;38.70
21778;DHT22;11050;52.222;20.916;2023-06-26T11:44:02;31.80;39.00
21778;DHT22;11050;52.222;20.916;2023-06-26T11:46:30;32.10;37.90
21778;DHT22;11050;52.222;20.916;2023-06-26T11:48:56;32.20;36.60
21778;DHT22;11050;52.222;20.916;2023-06-26T11:51:23;32.40;36.60
21778;DHT22;11050;52.222;20.916;2023-06-26T11:53:49;32.60;36.50
21778;DHT22;11050;52.222;20.916;2023-06-26T11:56:16;32.70;34.90
21778;DHT22;11050;52.222;20.916;2023-06-26T11:59:15;33.00;36.10
21778;DHT22;11050;52.222;20.916;2023-06-26T12:01:42;33.20;34.30
21778;DHT22;11050;52.222;20.916;2023-06-26T12:04:16;33.30;33.10
21778;DHT22;11050;52.222;20.916;2023-06-26T12:06:48;33.30;33.10
21778;DHT22;11050;52.222;20.916;2023-06-26T12:09:18;33.40;33.00
21778;DHT22;11050;52.222;20.916;2023-06-26T12:11:47;33.20;32.30
21778;DHT22;11050;52.222;20.916;2023-06-26T12:14:14;33.20;32.90
21778;DHT22;11050;52.222;20.916;2023-06-26T12:16:42;33.30;32.60
21778;DHT22;11050;52.222;20.916;2023-06-26T12:19:08;33.40;33.30
21778;DHT22;11050;52.222;20.916;2023-06-26T12:24:03;33.70;32.80
21778;DHT22;11050;52.222;20.916;2023-06-26T12:26:30;33.90;32.00
21778;DHT22;11050;52.222;20.916;2023-06-26T12:29:13;34.10;31.70
21778;DHT22;11050;52.222;20.916;2023-06-26T12:31:52;34.30;31.10
21778;DHT22;11050;52.222;20.916;2023-06-26T12:34:40;34.50;30.90
21778;DHT22;11050;52.222;20.916;2023-06-26T12:37:08;34.60;30.10
21778;DHT22;11050;52.222;20.916;2023-06-26T12:39:49;34.50;31.10
21778;DHT22;11050;52.222;20.916;2023-06-26T12:42:17;34.20;31.40
21778;DHT22;11050;52.222;20.916;2023-06-26T12:44:44;33.70;32.00
21778;DHT22;11050;52.222;20.916;2023-06-26T12:47:10;33.10;33.30
21778;DHT22;11050;52.222;20.916;2023-06-26T12:49:40;32.60;34.80
21778;DHT22;11050;52.222;20.916;2023-06-26T12:52:11;32.20;34.40
21778;DHT22;11050;52.222;20.916;2023-06-26T12:54:40;32.00;35.60
21778;DHT22;11050;52.222;20.916;2023-06-26T12:57:07;32.00;35.50
21778;DHT22;11050;52.222;20.916;2023-06-26T12:59:35;31.70;36.00
21778;DHT22;11050;52.222;20.916;2023-06-26T13:02:02;31.60;35.60
21778;DHT22;11050;52.222;20.916;2023-06-26T13:04:29;31.50;35.60
21778;DHT22;11050;52.222;20.916;2023-06-26T13:06:55;31.50;36.40
21778;DHT22;11050;52.222;20.916;2023-06-26T13:09:23;31.70;35.20
21778;DHT22;11050;52.222;20.916;2023-06-26T13:11:51;32.00;36.40
21778;DHT22;11050;52.222;20.916;2023-06-26T13:14:17;32.40;36.10
21778;DHT22;11050;52.222;20.916;2023-06-26T13:16:43;33.00;36.50
21778;DHT22;11050;52.222;20.916;2023-06-26T13:19:09;33.40;33.30
21778;DHT22;11050;52.222;20.916;2023-06-26T13:21:35;33.90;32.60
21778;DHT22;11050;52.222;20.916;2023-06-26T13:24:02;34.00;31.30
21778;DHT22;11050;52.222;20.916;2023-06-26T13:26:32;33.80;31.80
21778;DHT22;11050;52.222;20.916;2023-06-26T13:28:59;33.70;32.50
21778;DHT22;11050;52.222;20.916;2023-06-26T13:31:25;33.80;31.70
21778;DHT22;11050;52.222;20.916;2023-06-26T13:33:50;34.30;31.80
21778;DHT22;11050;52.222;20.916;2023-06-26T13:36:18;34.70;31.30
21778;DHT22;11050;52.222;20.916;2023-06-26T13:38:44;35.00;30.10
21778;DHT22;11050;52.222;20.916;2023-06-26T13:41:10;35.20;30.10
21778;DHT22;11050;52.222;20.916;2023-06-26T13:43:37;35.20;30.00
21778;DHT22;11050;52.222;20.916;2023-06-26T13:46:03;35.20;30.70
21778;DHT22;11050;52.222;20.916;2023-06-26T13:48:29;35.20;30.00
21778;DHT22;11050;52.222;20.916;2023-06-26T13:50:55;35.60;29.10
21778;DHT22;11050;52.222;20.916;2023-06-26T13:53:21;35.90;28.60
21778;DHT22;11050;52.222;20.916;2023-06-26T13:55:54;36.10;29.10
21778;DHT22;11050;52.222;20.916;2023-06-26T13:58:19;36.50;27.90
21778;DHT22;11050;52.222;20.916;2023-06-26T14:00:48;36.70;27.60
21778;DHT22;11050;52.222;20.916;2023-06-26T14:03:14;37.10;27.30
21778;DHT22;11050;52.222;20.916;2023-06-26T14:05:40;37.40;27.40
21778;DHT22;11050;52.222;20.916;2023-06-26T14:08:08;37.80;27.10
21778;DHT22;11050;52.222;20.916;2023-06-26T14:10:34;38.10;26.80
21778;DHT22;11050;52.222;20.916;2023-06-26T14:13:00;38.30;26.10
21778;DHT22;11050;52.222;20.916;2023-06-26T14:15:26;38.40;25.20
21778;DHT22;11050;52.222;20.916;2023-06-26T14:17:52;38.30;25.20
21778;DHT22;11050;52.222;20.916;2023-06-26T14:20:18;38.10;25.10
21778;DHT22;11050;52.222;20.916;2023-06-26T14:22:46;37.50;25.90
21778;DHT22;11050;52.222;20.916;2023-06-26T14:25:13;37.20;26.40
21778;DHT22;11050;52.222;20.916;2023-06-26T14:27:39;36.90;26.80
21778;DHT22;11050;52.222;20.916;2023-06-26T14:30:05;36.80;27.20
21778;DHT22;11050;52.222;20.916;2023-06-26T14:32:35;37.00;26.70
21778;DHT22;11050;52.222;20.916;2023-06-26T14:35:02;37.30;26.50
21778;DHT22;11050;52.222;20.916;2023-06-26T14:37:29;37.40;26.40
21778;DHT22;11050;52.222;20.916;2023-06-26T14:39:56;37.80;25.50
21778;DHT22;11050;52.222;20.916;2023-06-26T14:42:24;38.00;26.00
21778;DHT22;11050;52.222;20.916;2023-06-26T14:44:50;38.00;25.80
21778;DHT22;11050;52.222;20.916;2023-06-26T14:47:17;37.80;25.50
21778;DHT22;11050;52.222;20.916;2023-06-26T14:49:43;37.70;25.60
21778;DHT22;11050;52.222;20.916;2023-06-26T14:52:09;37.70;25.70
21778;DHT22;11050;52.222;20.916;2023-06-26T14:54:35;37.70;25.80
21778;DHT22;11050;52.222;20.916;2023-06-26T14:57:05;37.70;25.10
21778;DHT22;11050;52.222;20.916;2023-06-26T14:59:32;37.50;25.50
21778;DHT22;11050;52.222;20.916;2023-06-26T15:01:57;37.30;25.60
21778;DHT22;11050;52.222;20.916;2023-06-26T15:04:23;36.80;25.70
21778;DHT22;11050;52.222;20.916;2023-06-26T15:06:49;36.20;26.40
21778;DHT22;11050;52.222;20.916;2023-06-26T15:09:15;35.60;27.10
21778;DHT22;11050;52.222;20.916;2023-06-26T15:11:41;35.00;27.70
21778;DHT22;11050;52.222;20.916;2023-06-26T15:14:08;34.60;28.60
21778;DHT22;11050;52.222;20.916;2023-06-26T15:16:34;34.40;29.00
21778;DHT22;11050;52.222;20.916;2023-06-26T15:19:00;34.50;29.40
21778;DHT22;11050;52.222;20.916;2023-06-26T15:21:26;34.80;29.70
21778;DHT22;11050;52.222;20.916;2023-06-26T15:23:52;35.10;28.60
21778;DHT22;11050;52.222;20.916;2023-06-26T15:26:18;35.60;28.10
21778;DHT22;11050;52.222;20.916;2023-06-26T15:28:43;36.10;27.80
21778;DHT22;11050;52.222;20.916;2023-06-26T15:31:09;36.70;27.40
21778;DHT22;11050;52.222;20.916;2023-06-26T15:33:35;37.00;27.00
21778;DHT22;11050;52.222;20.916;2023-06-26T15:36:01;37.00;26.30
21778;DHT22;11050;52.222;20.916;2023-06-26T15:38:29;37.10;26.20
21778;DHT22;11050;52.222;20.916;2023-06-26T15:40:55;37.30;26.50
21778;DHT22;11050;52.222;20.916;2023-06-26T15:43:21;37.30;26.10